sensor_id;sensor_type;location;lat;lon;timestamp;temperature;humidity
78297;DHT22;67555;47.660;19.622;2023-03-23T00:01:06;7.20;62.40
78297;DHT22;67555;47.660;19.622;2023-03-23T00:03:32;7.10;62.50
78297;DHT22;67555;47.660;19.622;2023-03-23T00:06:01;7.00;62.70
78297;DHT22;67555;47.660;19.622;2023-03-23T00:08:33;6.70;63.10
78297;DHT22;67555;47.660;19.622;2023-03-23T00:10:59;6.40;63.40
78297;DHT22;67555;47.660;19.622;2023-03-23T00:13:27;6.30;63.40
78297;DHT22;67555;47.660;19.622;2023-03-23T00:15:54;6.10;63.60
78297;DHT22;67555;47.660;19.622;2023-03-23T00:18:22;6.00;64.00
78297;DHT22;67555;47.660;19.622;2023-03-23T00:20:53;5.80;64.40
78297;DHT22;67555;47.660;19.622;2023-03-23T00:23:22;5.70;64.90
78297;DHT22;67555;47.660;19.622;2023-03-23T00:25:50;5.60;65.20
78297;DHT22;67555;47.660;19.622;2023-03-23T00:28:20;5.60;65.20
78297;DHT22;67555;47.660;19.622;2023-03-23T00:30:57;5.50;65.50
78297;DHT22;67555;47.660;19.622;2023-03-23T00:33:27;5.50;65.80
78297;DHT22;67555;47.660;19.622;2023-03-23T00:35:54;5.30;66.20
78297;DHT22;67555;47.660;19.622;2023-03-23T00:38:22;5.30;66.70
78297;DHT22;67555;47.660;19.622;2023-03-23T00:40:47;5.10;66.80
78297;DHT22;67555;47.660;19.622;2023-03-23T00:43:15;5.10;67.00
78297;DHT22;67555;47.660;19.622;2023-03-23T00:45:42;5.00;67.80
78297;DHT22;67555;47.660;19.622;2023-03-23T00:48:13;4.90;68.30
78297;DHT22;67555;47.660;19.622;2023-03-23T00:50:39;4.80;68.60
78297;DHT22;67555;47.660;19.622;2023-03-23T00:53:05;4.80;68.70
78297;DHT22;67555;47.660;19.622;2023-03-23T00:55:31;4.80;68.70
78297;DHT22;67555;47.660;19.622;2023-03-23T00:57:57;4.90;68.50
78297;DHT22;67555;47.660;19.622;2023-03-23T01:00:23;4.90;68.40
78297;DHT22;67555;47.660;19.622;2023-03-23T01:02:49;5.00;68.20
78297;DHT22;67555;47.660;19.622;2023-03-23T01:05:17;5.10;68.20
78297;DHT22;67555;47.660;19.622;2023-03-23T01:07:43;5.10;68.00
78297;DHT22;67555;47.660;19.622;2023-03-23T01:10:10;5.10;68.00
78297;DHT22;67555;47.660;19.622;2023-03-23T01:12:39;5.20;68.00
78297;DHT22;67555;47.660;19.622;2023-03-23T01:15:05;5.20;68.10
78297;DHT22;67555;47.660;19.622;2023-03-23T01:17:31;5.30;68.00
78297;DHT22;67555;47.660;19.622;2023-03-23T01:19:57;5.30;68.10
78297;DHT22;67555;47.660;19.622;2023-03-23T01:22:23;5.10;68.60
78297;DHT22;67555;47.660;19.622;2023-03-23T01:24:49;5.10;68.80
78297;DHT22;67555;47.660;19.622;2023-03-23T01:27:15;5.00;69.10
78297;DHT22;67555;47.660;19.622;2023-03-23T01:29:40;5.00;69.40
78297;DHT22;67555;47.660;19.622;2023-03-23T01:32:06;4.90;69.70
78297;DHT22;67555;47.660;19.622;2023-03-23T01:34:32;4.80;69.90
78297;DHT22;67555;47.660;19.622;2023-03-23T01:36:58;4.80;69.90
78297;DHT22;67555;47.660;19.622;2023-03-23T01:39:23;4.90;69.60
78297;DHT22;67555;47.660;19.622;2023-03-23T01:41:49;4.80;69.60
78297;DHT22;67555;47.660;19.622;2023-03-23T01:46:44;4.70;69.70
78297;DHT22;67555;47.660;19.622;2023-03-23T01:49:19;4.60;69.80
78297;DHT22;67555;47.660;19.622;2023-03-23T01:51:50;4.60;69.60
78297;DHT22;67555;47.660;19.622;2023-03-23T01:54:18;4.50;69.30
78297;DHT22;67555;47.660;19.622;2023-03-23T01:57:02;4.50;69.20
78297;DHT22;67555;47.660;19.622;2023-03-23T01:59:30;4.50;68.90
78297;DHT22;67555;47.660;19.622;2023-03-23T02:01:57;4.40;68.80
78297;DHT22;67555;47.660;19.622;2023-03-23T02:04:24;4.40;69.00
78297;DHT22;67555;47.660;19.622;2023-03-23T02:06:55;4.30;69.40
78297;DHT22;67555;47.660;19.622;2023-03-23T02:09:24;4.20;69.80
78297;DHT22;67555;47.660;19.622;2023-03-23T02:11:51;4.20;70.10
78297;DHT22;67555;47.660;19.622;2023-03-23T02:14:18;4.20;70.30
78297;DHT22;67555;47.660;19.622;2023-03-23T02:19:58;4.20;70.60
78297;DHT22;67555;47.660;19.622;2023-03-23T02:28:34;4.50;69.90
78297;DHT22;67555;47.660;19.622;2023-03-23T02:31:27;4.50;69.70
78297;DHT22;67555;47.660;19.622;2023-03-23T02:34:24;4.50;69.80
78297;DHT22;67555;47.660;19.622;2023-03-23T02:37:03;4.60;69.70
78297;DHT22;67555;47.660;19.622;2023-03-23T02:39:45;4.70;69.60
78297;DHT22;67555;47.660;19.622;2023-03-23T02:42:15;4.60;69.80
78297;DHT22;67555;47.660;19.622;2023-03-23T02:44:45;4.60;70.00
78297;DHT22;67555;47.660;19.622;2023-03-23T02:47:18;4.70;69.90
78297;DHT22;67555;47.660;19.622;2023-03-23T02:49:48;4.70;69.90
78297;DHT22;67555;47.660;19.622;2023-03-23T02:52:19;4.70;69.80
78297;DHT22;67555;47.660;19.622;2023-03-23T02:54:48;4.80;69.30
78297;DHT22;67555;47.660;19.622;2023-03-23T02:57:15;4.70;69.20
78297;DHT22;67555;47.660;19.622;2023-03-23T02:59:41;4.60;69.30
78297;DHT22;67555;47.660;19.622;2023-03-23T03:04:39;4.50;69.60
78297;DHT22;67555;47.660;19.622;2023-03-23T03:09:48;4.50;69.60
78297;DHT22;67555;47.660;19.622;2023-03-23T03:12:38;4.40;69.60
78297;DHT22;67555;47.660;19.622;2023-03-23T03:15:10;4.40;69.40
78297;DHT22;67555;47.660;19.622;2023-03-23T03:17:52;4.40;69.30
78297;DHT22;67555;47.660;19.622;2023-03-23T03:20:19;4.30;69.30
78297;DHT22;67555;47.660;19.622;2023-03-23T03:22:46;4.30;69.20
78297;DHT22;67555;47.660;19.622;2023-03-23T03:25:15;4.30;69.30
78297;DHT22;67555;47.660;19.622;2023-03-23T03:27:44;4.20;69.40
78297;DHT22;67555;47.660;19.622;2023-03-23T03:30:13;4.20;69.40
78297;DHT22;67555;47.660;19.622;2023-03-23T03:32:45;4.20;69.40
78297;DHT22;67555;47.660;19.622;2023-03-23T03:35:14;4.20;69.50
78297;DHT22;67555;47.660;19.622;2023-03-23T03:37:41;4.20;69.60
78297;DHT22;67555;47.660;19.622;2023-03-23T03:40:10;4.30;69.60
78297;DHT22;67555;47.660;19.622;2023-03-23T03:42:41;4.30;69.60
78297;DHT22;67555;47.660;19.622;2023-03-23T03:45:09;4.30;69.60
78297;DHT22;67555;47.660;19.622;2023-03-23T03:47:35;4.30;69.70
78297;DHT22;67555;47.660;19.622;2023-03-23T03:50:01;4.40;69.80
78297;DHT22;67555;47.660;19.622;2023-03-23T03:52:27;4.40;69.60
78297;DHT22;67555;47.660;19.622;2023-03-23T03:54:54;4.50;69.60
78297;DHT22;67555;47.660;19.622;2023-03-23T03:57:20;4.50;69.50
78297;DHT22;67555;47.660;19.622;2023-03-23T03:59:46;4.60;69.20
78297;DHT22;67555;47.660;19.622;2023-03-23T04:02:13;4.70;68.80
78297;DHT22;67555;47.660;19.622;2023-03-23T04:04:42;4.60;68.70
78297;DHT22;67555;47.660;19.622;2023-03-23T04:07:09;4.50;68.70
78297;DHT22;67555;47.660;19.622;2023-03-23T04:09:40;4.20;69.00
78297;DHT22;67555;47.660;19.622;2023-03-23T04:12:06;4.00;69.50
78297;DHT22;67555;47.660;19.622;2023-03-23T04:14:32;3.90;69.70
78297;DHT22;67555;47.660;19.622;2023-03-23T04:16:58;3.90;69.80
78297;DHT22;67555;47.660;19.622;2023-03-23T04:19:24;3.80;70.00
78297;DHT22;67555;47.660;19.622;2023-03-23T04:21:50;3.70;70.20
78297;DHT22;67555;47.660;19.622;2023-03-23T04:24:17;3.80;70.20
78297;DHT22;67555;47.660;19.622;2023-03-23T04:26:47;3.80;70.10
78297;DHT22;67555;47.660;19.622;2023-03-23T04:29:13;3.70;70.30
78297;DHT22;67555;47.660;19.622;2023-03-23T04:31:39;3.80;70.40
78297;DHT22;67555;47.660;19.622;2023-03-23T04:34:06;3.80;70.50
78297;DHT22;67555;47.660;19.622;2023-03-23T04:36:31;3.80;70.60
78297;DHT22;67555;47.660;19.622;2023-03-23T04:38:59;3.80;70.70
78297;DHT22;67555;47.660;19.622;2023-03-23T04:41:26;3.80;70.70
78297;DHT22;67555;47.660;19.622;2023-03-23T04:43:52;3.80;70.70
78297;DHT22;67555;47.660;19.622;2023-03-23T04:46:19;3.90;70.70
78297;DHT22;67555;47.660;19.622;2023-03-23T04:48:46;3.90;70.50
78297;DHT22;67555;47.660;19.622;2023-03-23T04:51:12;4.00;70.40
78297;DHT22;67555;47.660;19.622;2023-03-23T04:53:39;4.00;70.40
78297;DHT22;67555;47.660;19.622;2023-03-23T04:56:06;4.10;70.00
78297;DHT22;67555;47.660;19.622;2023-03-23T04:58:32;4.30;69.80
78297;DHT22;67555;47.660;19.622;2023-03-23T05:01:01;4.30;69.50
78297;DHT22;67555;47.660;19.622;2023-03-23T05:03:26;4.40;69.40
78297;DHT22;67555;47.660;19.622;2023-03-23T05:05:52;4.40;69.40
78297;DHT22;67555;47.660;19.622;2023-03-23T05:08:23;4.50;69.40
78297;DHT22;67555;47.660;19.622;2023-03-23T05:10:55;4.50;69.40
78297;DHT22;67555;47.660;19.622;2023-03-23T05:13:21;4.50;69.60
78297;DHT22;67555;47.660;19.622;2023-03-23T05:15:49;4.50;69.70
78297;DHT22;67555;47.660;19.622;2023-03-23T05:18:15;4.50;69.90
78297;DHT22;67555;47.660;19.622;2023-03-23T05:20:41;4.70;69.80
78297;DHT22;67555;47.660;19.622;2023-03-23T05:23:09;4.80;69.50
78297;DHT22;67555;47.660;19.622;2023-03-23T05:25:36;5.00;69.10
78297;DHT22;67555;47.660;19.622;2023-03-23T05:28:07;5.00;68.90
78297;DHT22;67555;47.660;19.622;2023-03-23T05:30:34;5.00;69.00
78297;DHT22;67555;47.660;19.622;2023-03-23T05:33:01;5.00;69.00
78297;DHT22;67555;47.660;19.622;2023-03-23T05:35:26;5.10;69.10
78297;DHT22;67555;47.660;19.622;2023-03-23T05:37:52;5.30;69.00
78297;DHT22;67555;47.660;19.622;2023-03-23T05:40:19;5.40;68.80
78297;DHT22;67555;47.660;19.622;2023-03-23T05:42:46;5.40;68.70
78297;DHT22;67555;47.660;19.622;2023-03-23T05:45:13;5.40;68.80
78297;DHT22;67555;47.660;19.622;2023-03-23T05:47:41;5.50;68.60
78297;DHT22;67555;47.660;19.622;2023-03-23T05:50:08;5.60;68.30
78297;DHT22;67555;47.660;19.622;2023-03-23T05:52:35;5.50;68.50
78297;DHT22;67555;47.660;19.622;2023-03-23T05:55:02;5.30;68.70
78297;DHT22;67555;47.660;19.622;2023-03-23T05:57:29;5.20;69.00
78297;DHT22;67555;47.660;19.622;2023-03-23T05:59:56;5.10;69.40
78297;DHT22;67555;47.660;19.622;2023-03-23T06:02:23;5.00;69.50
78297;DHT22;67555;47.660;19.622;2023-03-23T06:04:50;5.00;69.80
78297;DHT22;67555;47.660;19.622;2023-03-23T06:07:16;5.00;69.80
78297;DHT22;67555;47.660;19.622;2023-03-23T06:09:42;5.10;69.70
78297;DHT22;67555;47.660;19.622;2023-03-23T06:12:09;5.30;69.70
78297;DHT22;67555;47.660;19.622;2023-03-23T06:14:36;5.60;69.30
78297;DHT22;67555;47.660;19.622;2023-03-23T06:17:02;5.90;68.70
78297;DHT22;67555;47.660;19.622;2023-03-23T06:19:28;6.20;68.30
78297;DHT22;67555;47.660;19.622;2023-03-23T06:21:54;6.40;68.00
78297;DHT22;67555;47.660;19.622;2023-03-23T06:24:21;6.60;67.90
78297;DHT22;67555;47.660;19.622;2023-03-23T06:26:47;6.80;67.60
78297;DHT22;67555;47.660;19.622;2023-03-23T06:29:13;7.10;67.20
78297;DHT22;67555;47.660;19.622;2023-03-23T06:31:45;7.40;66.90
78297;DHT22;67555;47.660;19.622;2023-03-23T06:34:13;7.60;66.70
78297;DHT22;67555;47.660;19.622;2023-03-23T06:36:38;7.80;66.40
78297;DHT22;67555;47.660;19.622;2023-03-23T06:39:05;8.10;66.00
78297;DHT22;67555;47.660;19.622;2023-03-23T06:41:31;8.40;65.60
78297;DHT22;67555;47.660;19.622;2023-03-23T06:43:58;8.70;65.20
78297;DHT22;67555;47.660;19.622;2023-03-23T06:46:24;9.00;64.80
78297;DHT22;67555;47.660;19.622;2023-03-23T06:48:50;9.20;64.40
78297;DHT22;67555;47.660;19.622;2023-03-23T06:51:17;9.40;64.10
78297;DHT22;67555;47.660;19.622;2023-03-23T06:53:43;9.60;63.80
78297;DHT22;67555;47.660;19.622;2023-03-23T06:56:09;9.80;63.50
78297;DHT22;67555;47.660;19.622;2023-03-23T06:58:35;10.00;63.20
78297;DHT22;67555;47.660;19.622;2023-03-23T07:01:01;10.20;63.00
78297;DHT22;67555;47.660;19.622;2023-03-23T07:03:27;10.40;62.80
78297;DHT22;67555;47.660;19.622;2023-03-23T07:05:54;10.60;62.60
78297;DHT22;67555;47.660;19.622;2023-03-23T07:08:20;10.70;62.30
78297;DHT22;67555;47.660;19.622;2023-03-23T07:10:47;11.00;62.10
78297;DHT22;67555;47.660;19.622;2023-03-23T07:13:17;11.10;61.80
78297;DHT22;67555;47.660;19.622;2023-03-23T07:15:43;11.40;61.60
78297;DHT22;67555;47.660;19.622;2023-03-23T07:18:09;11.50;61.40
78297;DHT22;67555;47.660;19.622;2023-03-23T07:20:35;11.70;61.10
78297;DHT22;67555;47.660;19.622;2023-03-23T07:23:01;11.90;60.90
78297;DHT22;67555;47.660;19.622;2023-03-23T07:25:28;12.10;60.70
78297;DHT22;67555;47.660;19.622;2023-03-23T07:27:53;12.20;60.50
78297;DHT22;67555;47.660;19.622;2023-03-23T07:30:19;12.50;60.30
78297;DHT22;67555;47.660;19.622;2023-03-23T07:32:45;12.60;60.00
78297;DHT22;67555;47.660;19.622;2023-03-23T07:35:11;12.80;59.60
78297;DHT22;67555;47.660;19.622;2023-03-23T07:37:37;13.00;59.30
78297;DHT22;67555;47.660;19.622;2023-03-23T07:40:04;13.10;59.00
78297;DHT22;67555;47.660;19.622;2023-03-23T07:42:52;13.20;58.80
78297;DHT22;67555;47.660;19.622;2023-03-23T07:45:18;13.30;58.40
78297;DHT22;67555;47.660;19.622;2023-03-23T07:47:44;13.40;58.20
78297;DHT22;67555;47.660;19.622;2023-03-23T07:50:10;13.50;58.00
78297;DHT22;67555;47.660;19.622;2023-03-23T07:52:37;13.50;57.80
78297;DHT22;67555;47.660;19.622;2023-03-23T07:55:06;13.60;57.70
78297;DHT22;67555;47.660;19.622;2023-03-23T07:57:34;13.60;57.50
78297;DHT22;67555;47.660;19.622;2023-03-23T08:00:00;13.70;57.30
78297;DHT22;67555;47.660;19.622;2023-03-23T08:02:26;13.90;57.20
78297;DHT22;67555;47.660;19.622;2023-03-23T08:04:52;13.90;57.00
78297;DHT22;67555;47.660;19.622;2023-03-23T08:07:19;14.00;56.90
78297;DHT22;67555;47.660;19.622;2023-03-23T08:09:46;14.00;56.70
78297;DHT22;67555;47.660;19.622;2023-03-23T08:12:13;14.10;56.60
78297;DHT22;67555;47.660;19.622;2023-03-23T08:14:39;14.10;56.50
78297;DHT22;67555;47.660;19.622;2023-03-23T08:17:07;14.20;56.30
78297;DHT22;67555;47.660;19.622;2023-03-23T08:19:34;14.30;56.10
78297;DHT22;67555;47.660;19.622;2023-03-23T08:22:03;14.40;55.80
78297;DHT22;67555;47.660;19.622;2023-03-23T08:24:30;14.50;55.70
78297;DHT22;67555;47.660;19.622;2023-03-23T08:26:56;14.60;55.50
78297;DHT22;67555;47.660;19.622;2023-03-23T08:29:21;14.80;55.30
78297;DHT22;67555;47.660;19.622;2023-03-23T08:31:47;14.90;55.00
78297;DHT22;67555;47.660;19.622;2023-03-23T08:34:13;15.00;54.70
78297;DHT22;67555;47.660;19.622;2023-03-23T08:36:41;15.20;54.50
78297;DHT22;67555;47.660;19.622;2023-03-23T08:39:09;15.20;54.30
78297;DHT22;67555;47.660;19.622;2023-03-23T08:41:35;15.30;54.10
78297;DHT22;67555;47.660;19.622;2023-03-23T08:44:01;15.50;54.10
78297;DHT22;67555;47.660;19.622;2023-03-23T08:46:27;15.60;53.90
78297;DHT22;67555;47.660;19.622;2023-03-23T08:48:53;15.80;53.70
78297;DHT22;67555;47.660;19.622;2023-03-23T08:51:19;15.90;53.50
78297;DHT22;67555;47.660;19.622;2023-03-23T08:53:45;16.00;53.30
78297;DHT22;67555;47.660;19.622;2023-03-23T08:56:11;16.10;53.20
78297;DHT22;67555;47.660;19.622;2023-03-23T08:58:40;16.20;53.00
78297;DHT22;67555;47.660;19.622;2023-03-23T09:01:07;16.40;52.70
78297;DHT22;67555;47.660;19.622;2023-03-23T09:03:34;16.40;52.50
78297;DHT22;67555;47.660;19.622;2023-03-23T09:06:02;16.60;52.50
78297;DHT22;67555;47.660;19.622;2023-03-23T09:08:29;16.70;52.20
78297;DHT22;67555;47.660;19.622;2023-03-23T09:10:59;16.80;52.00
78297;DHT22;67555;47.660;19.622;2023-03-23T09:13:25;17.00;51.70
78297;DHT22;67555;47.660;19.622;2023-03-23T09:15:51;17.20;51.40
78297;DHT22;67555;47.660;19.622;2023-03-23T09:18:18;17.30;51.20
78297;DHT22;67555;47.660;19.622;2023-03-23T09:20:44;17.50;50.90
78297;DHT22;67555;47.660;19.622;2023-03-23T09:23:10;17.60;50.70
78297;DHT22;67555;47.660;19.622;2023-03-23T09:25:36;17.80;50.50
78297;DHT22;67555;47.660;19.622;2023-03-23T09:28:01;18.00;50.20
78297;DHT22;67555;47.660;19.622;2023-03-23T09:30:29;18.20;50.00
78297;DHT22;67555;47.660;19.622;2023-03-23T09:32:56;18.40;49.70
78297;DHT22;67555;47.660;19.622;2023-03-23T09:35:23;18.50;49.40
78297;DHT22;67555;47.660;19.622;2023-03-23T09:37:51;18.70;49.10
78297;DHT22;67555;47.660;19.622;2023-03-23T09:40:22;18.90;48.80
78297;DHT22;67555;47.660;19.622;2023-03-23T09:42:55;19.10;48.50
78297;DHT22;67555;47.660;19.622;2023-03-23T09:50:45;19.40;47.80
78297;DHT22;67555;47.660;19.622;2023-03-23T09:53:20;19.50;47.60
78297;DHT22;67555;47.660;19.622;2023-03-23T09:55:46;19.70;47.50
78297;DHT22;67555;47.660;19.622;2023-03-23T10:03:45;20.20;46.30
78297;DHT22;67555;47.660;19.622;2023-03-23T10:06:17;20.30;46.00
78297;DHT22;67555;47.660;19.622;2023-03-23T10:08:53;20.50;45.80
78297;DHT22;67555;47.660;19.622;2023-03-23T10:11:51;20.60;45.30
78297;DHT22;67555;47.660;19.622;2023-03-23T10:14:44;20.90;44.70
78297;DHT22;67555;47.660;19.622;2023-03-23T10:22:52;21.50;43.40
78297;DHT22;67555;47.660;19.622;2023-03-23T10:25:25;21.70;43.10
78297;DHT22;67555;47.660;19.622;2023-03-23T10:30:41;22.10;41.70
78297;DHT22;67555;47.660;19.622;2023-03-23T10:33:29;22.20;41.50
78297;DHT22;67555;47.660;19.622;2023-03-23T10:38:41;22.30;39.40
78297;DHT22;67555;47.660;19.622;2023-03-23T10:41:16;22.20;39.30
78297;DHT22;67555;47.660;19.622;2023-03-23T10:43:44;22.20;38.70
78297;DHT22;67555;47.660;19.622;2023-03-23T10:46:36;22.10;38.10
78297;DHT22;67555;47.660;19.622;2023-03-23T10:49:06;22.00;37.60
78297;DHT22;67555;47.660;19.622;2023-03-23T10:51:39;22.00;37.70
78297;DHT22;67555;47.660;19.622;2023-03-23T10:54:06;22.10;37.50
78297;DHT22;67555;47.660;19.622;2023-03-23T10:56:37;22.10;37.50
78297;DHT22;67555;47.660;19.622;2023-03-23T10:59:39;22.20;37.10
78297;DHT22;67555;47.660;19.622;2023-03-23T11:02:20;22.20;36.80
78297;DHT22;67555;47.660;19.622;2023-03-23T11:05:03;22.20;36.40
78297;DHT22;67555;47.660;19.622;2023-03-23T11:08:00;22.10;36.10
78297;DHT22;67555;47.660;19.622;2023-03-23T11:10:38;22.00;36.00
78297;DHT22;67555;47.660;19.622;2023-03-23T11:13:05;21.90;35.70
78297;DHT22;67555;47.660;19.622;2023-03-23T11:15:40;21.70;35.90
78297;DHT22;67555;47.660;19.622;2023-03-23T11:18:11;21.70;36.00
78297;DHT22;67555;47.660;19.622;2023-03-23T11:20:41;21.70;36.00
78297;DHT22;67555;47.660;19.622;2023-03-23T11:23:32;21.70;36.00
78297;DHT22;67555;47.660;19.622;2023-03-23T11:26:20;21.70;35.50
78297;DHT22;67555;47.660;19.622;2023-03-23T11:31:39;21.70;35.70
78297;DHT22;67555;47.660;19.622;2023-03-23T11:34:23;21.80;35.80
78297;DHT22;67555;47.660;19.622;2023-03-23T11:41:52;22.10;35.40
78297;DHT22;67555;47.660;19.622;2023-03-23T11:44:19;22.10;35.30
78297;DHT22;67555;47.660;19.622;2023-03-23T11:47:07;22.10;35.20
78297;DHT22;67555;47.660;19.622;2023-03-23T11:50:30;22.20;35.10
78297;DHT22;67555;47.660;19.622;2023-03-23T11:53:10;22.20;34.90
78297;DHT22;67555;47.660;19.622;2023-03-23T11:58:13;22.20;35.00
78297;DHT22;67555;47.660;19.622;2023-03-23T12:00:48;22.10;34.80
78297;DHT22;67555;47.660;19.622;2023-03-23T12:06:10;22.20;34.70
78297;DHT22;67555;47.660;19.622;2023-03-23T12:09:07;22.20;34.80
78297;DHT22;67555;47.660;19.622;2023-03-23T12:17:48;22.10;35.00
78297;DHT22;67555;47.660;19.622;2023-03-23T12:30:42;22.00;34.80
78297;DHT22;67555;47.660;19.622;2023-03-23T12:41:26;22.60;33.90
78297;DHT22;67555;47.660;19.622;2023-03-23T12:44:00;22.90;33.70
78297;DHT22;67555;47.660;19.622;2023-03-23T12:49:06;23.50;33.20
78297;DHT22;67555;47.660;19.622;2023-03-23T12:55:02;24.00;32.50
78297;DHT22;67555;47.660;19.622;2023-03-23T13:08:46;23.60;32.00
78297;DHT22;67555;47.660;19.622;2023-03-23T13:11:19;23.50;32.10
78297;DHT22;67555;47.660;19.622;2023-03-23T13:13:53;23.50;32.20
78297;DHT22;67555;47.660;19.622;2023-03-23T13:16:53;23.50;32.10
78297;DHT22;67555;47.660;19.622;2023-03-23T13:19:35;23.40;32.10
78297;DHT22;67555;47.660;19.622;2023-03-23T13:22:20;23.40;32.30
78297;DHT22;67555;47.660;19.622;2023-03-23T13:24:59;23.30;32.30
78297;DHT22;67555;47.660;19.622;2023-03-23T13:27:27;23.20;32.30
78297;DHT22;67555;47.660;19.622;2023-03-23T13:29:56;23.10;32.30
78297;DHT22;67555;47.660;19.622;2023-03-23T13:32:34;23.00;32.30
78297;DHT22;67555;47.660;19.622;2023-03-23T13:35:03;23.00;32.50
78297;DHT22;67555;47.660;19.622;2023-03-23T13:37:31;23.00;32.70
78297;DHT22;67555;47.660;19.622;2023-03-23T13:40:26;23.10;32.60
78297;DHT22;67555;47.660;19.622;2023-03-23T13:42:58;23.20;32.50
78297;DHT22;67555;47.660;19.622;2023-03-23T13:48:25;23.30;32.30
78297;DHT22;67555;47.660;19.622;2023-03-23T13:50:57;23.30;32.40
78297;DHT22;67555;47.660;19.622;2023-03-23T13:53:46;23.30;32.50
78297;DHT22;67555;47.660;19.622;2023-03-23T13:56:21;23.30;32.30
78297;DHT22;67555;47.660;19.622;2023-03-23T13:59:15;23.20;32.30
78297;DHT22;67555;47.660;19.622;2023-03-23T14:01:42;23.10;32.30
78297;DHT22;67555;47.660;19.622;2023-03-23T14:04:15;23.00;32.40
78297;DHT22;67555;47.660;19.622;2023-03-23T14:06:42;22.80;32.50
78297;DHT22;67555;47.660;19.622;2023-03-23T14:09:19;22.70;32.70
78297;DHT22;67555;47.660;19.622;2023-03-23T14:14:32;22.50;33.00
78297;DHT22;67555;47.660;19.622;2023-03-23T14:17:12;22.50;33.10
78297;DHT22;67555;47.660;19.622;2023-03-23T14:19:40;22.50;33.20
78297;DHT22;67555;47.660;19.622;2023-03-23T14:22:27;22.60;33.10
78297;DHT22;67555;47.660;19.622;2023-03-23T14:25:00;22.70;33.00
78297;DHT22;67555;47.660;19.622;2023-03-23T14:27:27;22.80;33.20
78297;DHT22;67555;47.660;19.622;2023-03-23T14:30:00;22.80;33.10
78297;DHT22;67555;47.660;19.622;2023-03-23T14:32:29;22.80;32.90
78297;DHT22;67555;47.660;19.622;2023-03-23T14:34:57;22.90;32.90
78297;DHT22;67555;47.660;19.622;2023-03-23T14:37:23;22.90;32.80
78297;DHT22;67555;47.660;19.622;2023-03-23T14:39:52;22.90;32.90
78297;DHT22;67555;47.660;19.622;2023-03-23T14:42:26;22.90;32.70
78297;DHT22;67555;47.660;19.622;2023-03-23T14:44:53;22.90;32.70
78297;DHT22;67555;47.660;19.622;2023-03-23T14:50:00;23.00;33.20
78297;DHT22;67555;47.660;19.622;2023-03-23T14:52:29;23.00;33.10
78297;DHT22;67555;47.660;19.622;2023-03-23T14:55:16;23.00;33.00
78297;DHT22;67555;47.660;19.622;2023-03-23T14:57:42;22.90;33.00
78297;DHT22;67555;47.660;19.622;2023-03-23T15:02:41;22.60;33.10
78297;DHT22;67555;47.660;19.622;2023-03-23T15:05:14;22.50;33.10
78297;DHT22;67555;47.660;19.622;2023-03-23T15:07:45;22.40;33.20
78297;DHT22;67555;47.660;19.622;2023-03-23T15:10:16;22.30;33.20
78297;DHT22;67555;47.660;19.622;2023-03-23T15:12:48;22.20;33.30
78297;DHT22;67555;47.660;19.622;2023-03-23T15:15:26;22.10;33.50
78297;DHT22;67555;47.660;19.622;2023-03-23T15:17:53;22.10;33.50
78297;DHT22;67555;47.660;19.622;2023-03-23T15:22:48;21.90;33.60
78297;DHT22;67555;47.660;19.622;2023-03-23T15:28:38;21.70;34.20
78297;DHT22;67555;47.660;19.622;2023-03-23T15:30:48;21.50;34.40
78297;DHT22;67555;47.660;19.622;2023-03-23T15:33:14;21.40;34.40
78297;DHT22;67555;47.660;19.622;2023-03-23T15:35:46;21.30;34.50
78297;DHT22;67555;47.660;19.622;2023-03-23T15:38:22;21.10;34.90
78297;DHT22;67555;47.660;19.622;2023-03-23T15:40:54;21.00;35.30
78297;DHT22;67555;47.660;19.622;2023-03-23T15:43:22;20.90;35.60
78297;DHT22;67555;47.660;19.622;2023-03-23T15:45:53;20.70;35.90
78297;DHT22;67555;47.660;19.622;2023-03-23T15:48:22;20.70;36.10
78297;DHT22;67555;47.660;19.622;2023-03-23T15:50:49;20.60;36.10
78297;DHT22;67555;47.660;19.622;2023-03-23T15:53:19;20.50;36.30
78297;DHT22;67555;47.660;19.622;2023-03-23T15:55:48;20.50;36.50
78297;DHT22;67555;47.660;19.622;2023-03-23T15:58:14;20.40;36.60
78297;DHT22;67555;47.660;19.622;2023-03-23T16:00:41;20.30;36.80
78297;DHT22;67555;47.660;19.622;2023-03-23T16:03:19;20.30;37.10
78297;DHT22;67555;47.660;19.622;2023-03-23T16:05:45;20.10;37.30
78297;DHT22;67555;47.660;19.622;2023-03-23T16:08:11;20.10;37.40
78297;DHT22;67555;47.660;19.622;2023-03-23T16:10:37;20.00;37.50
78297;DHT22;67555;47.660;19.622;2023-03-23T16:13:03;20.00;37.50
78297;DHT22;67555;47.660;19.622;2023-03-23T16:15:30;19.90;37.60
78297;DHT22;67555;47.660;19.622;2023-03-23T16:17:56;19.70;37.70
78297;DHT22;67555;47.660;19.622;2023-03-23T16:20:22;19.70;37.80
78297;DHT22;67555;47.660;19.622;2023-03-23T16:22:50;19.50;37.80
78297;DHT22;67555;47.660;19.622;2023-03-23T16:25:16;19.50;37.90
78297;DHT22;67555;47.660;19.622;2023-03-23T16:27:44;19.40;38.10
78297;DHT22;67555;47.660;19.622;2023-03-23T16:30:18;19.30;38.20
78297;DHT22;67555;47.660;19.622;2023-03-23T16:32:45;19.20;38.30
78297;DHT22;67555;47.660;19.622;2023-03-23T16:35:14;19.10;38.40
78297;DHT22;67555;47.660;19.622;2023-03-23T16:37:58;19.00;38.50
78297;DHT22;67555;47.660;19.622;2023-03-23T16:40:24;18.90;38.60
78297;DHT22;67555;47.660;19.622;2023-03-23T16:42:53;18.80;38.60
78297;DHT22;67555;47.660;19.622;2023-03-23T16:45:19;18.70;38.70
78297;DHT22;67555;47.660;19.622;2023-03-23T16:47:46;18.60;38.90
78297;DHT22;67555;47.660;19.622;2023-03-23T16:50:15;18.40;39.00
78297;DHT22;67555;47.660;19.622;2023-03-23T16:52:43;18.30;39.10
78297;DHT22;67555;47.660;19.622;2023-03-23T16:55:10;18.20;39.10
78297;DHT22;67555;47.660;19.622;2023-03-23T16:57:37;18.10;39.20
78297;DHT22;67555;47.660;19.622;2023-03-23T17:00:10;18.00;39.20
78297;DHT22;67555;47.660;19.622;2023-03-23T17:02:37;17.80;39.30
78297;DHT22;67555;47.660;19.622;2023-03-23T17:05:04;17.80;39.30
78297;DHT22;67555;47.660;19.622;2023-03-23T17:07:30;17.60;39.40
78297;DHT22;67555;47.660;19.622;2023-03-23T17:09:56;17.50;39.50
78297;DHT22;67555;47.660;19.622;2023-03-23T17:12:22;17.50;39.60
78297;DHT22;67555;47.660;19.622;2023-03-23T17:14:47;17.40;39.80
78297;DHT22;67555;47.660;19.622;2023-03-23T17:17:13;17.30;40.00
78297;DHT22;67555;47.660;19.622;2023-03-23T17:19:40;17.20;40.20
78297;DHT22;67555;47.660;19.622;2023-03-23T17:22:06;17.10;40.30
78297;DHT22;67555;47.660;19.622;2023-03-23T17:24:32;17.00;40.50
78297;DHT22;67555;47.660;19.622;2023-03-23T17:26:57;16.90;40.60
78297;DHT22;67555;47.660;19.622;2023-03-23T17:29:23;16.80;40.70